Time;durP1;ratioP1;P1;durP2;ratioP2;P2;SDS_P1;SDS_P2;PMS_P1;PMS_P2;Temp;Humidity;BMP_temperature;BMP_pressure;BME280_temperature;BME280_humidity;BME280_pressure;Samples;Min_cycle;Max_cycle;Signal;HPM_P1;HPM_P2
2021/12/30 00:00:52;;;;;;;14.30;3.55;;;;;;;-149.78;100.00;50561.41;5115666;28;20029;-65
2021/12/30 00:03:18;;;;;;;14.93;3.35;;;;;;;-149.78;100.00;50514.47;5113928;28;20023;-67
2021/12/30 00:05:44;;;;;;;15.98;3.63;;;;;;;-149.78;100.00;50569.22;5116000;28;20356;-67
2021/12/30 00:08:11;;;;;;;18.27;3.78;;;;;;;-149.78;100.00;50543.81;5116190;28;20097;-67
2021/12/30 00:10:40;;;;;;;21.42;3.40;;;;;;;-149.78;100.00;50551.63;5116043;28;20114;-67
2021/12/30 00:13:07;;;;;;;17.05;3.92;;;;;;;-149.78;100.00;50582.94;5116017;28;20483;-67
2021/12/30 00:15:33;;;;;;;17.08;3.60;;;;;;;-149.78;100.00;50547.72;5115907;28;20205;-67
2021/12/30 00:17:59;;;;;;;16.52;3.63;;;;;;;-149.78;100.00;50549.69;5115757;28;20088;-67
2021/12/30 00:20:26;;;;;;;14.93;3.65;;;;;;;-149.78;100.00;50545.75;5115929;28;20384;-67
2021/12/30 00:22:52;;;;;;;10.48;2.92;;;;;;;-149.78;100.00;50541.84;5115372;28;20024;-67
2021/12/30 00:25:19;;;;;;;13.77;4.55;;;;;;;-149.78;100.00;50579.00;5115960;28;20031;-67
2021/12/30 00:27:44;;;;;;;15.75;3.38;;;;;;;-149.78;100.00;50545.75;5115674;28;20084;-67
2021/12/30 00:30:12;;;;;;;9.40;3.35;;;;;;;-149.78;100.00;50526.22;5115652;28;20774;-67
2021/12/30 00:32:37;;;;;;;17.38;3.35;;;;;;;-149.78;100.00;50555.53;5115723;28;20027;-67
2021/12/30 00:35:04;;;;;;;10.68;3.25;;;;;;;-149.78;100.00;50561.41;5115589;28;20090;-67
2021/12/30 00:37:29;;;;;;;14.85;3.83;;;;;;;-149.78;100.00;50541.84;5112233;28;20031;-67
2021/12/30 00:39:55;;;;;;;6.63;2.58;;;;;;;-149.78;100.00;50541.84;5115408;28;20039;-67
2021/12/30 00:42:22;;;;;;;10.82;2.90;;;;;;;-149.78;100.00;50577.06;5115725;28;20031;-67
2021/12/30 00:44:47;;;;;;;8.93;2.58;;;;;;;-149.78;100.00;50541.84;5115451;28;20478;-67
2021/12/30 00:47:13;;;;;;;9.68;2.80;;;;;;;-149.78;100.00;50569.22;5115446;28;20089;-67
2021/12/30 00:49:38;;;;;;;6.13;2.55;;;;;;;-149.78;100.00;50541.84;5115257;28;20030;-67
2021/12/30 00:52:04;;;;;;;9.57;2.53;;;;;;;-149.78;100.00;50565.31;5115210;28;20071;-67
2021/12/30 00:54:30;;;;;;;12.48;2.33;;;;;;;-149.78;100.00;50537.94;5115921;28;20046;-67
2021/12/30 00:56:56;;;;;;;7.95;1.90;;;;;;;-149.78;100.00;50549.69;5096809;28;20039;-68
2021/12/30 00:59:22;;;;;;;5.70;2.13;;;;;;;-149.78;100.00;50561.41;5115217;28;20031;-67
2021/12/30 01:01:48;;;;;;;8.02;2.35;;;;;;;-149.78;100.00;50553.59;5096839;28;20069;-67
2021/12/30 01:04:13;;;;;;;11.27;2.60;;;;;;;-149.78;100.00;50498.81;5115300;28;20146;-67
2021/12/30 01:06:39;;;;;;;10.88;2.22;;;;;;;-149.78;100.00;50491.00;5116110;28;20393;-67
2021/12/30 01:09:05;;;;;;;7.70;2.20;;;;;;;-149.78;100.00;50522.28;5114394;28;20086;-67
2021/12/30 01:11:31;;;;;;;6.38;1.98;;;;;;;-149.78;100.00;50522.28;5115852;28;20040;-67
2021/12/30 01:14:02;;;;;;;7.63;2.40;;;;;;;-149.78;100.00;50522.28;5115867;28;20375;-67
2021/12/30 01:16:30;;;;;;;5.35;1.83;;;;;;;-149.78;100.00;50539.91;5115810;28;20028;-68
2021/12/30 01:19:24;;;;;;;10.30;2.17;;;;;;;-149.78;100.00;50534.03;5115930;28;20043;-67
2021/12/30 01:21:49;;;;;;;5.95;1.77;;;;;;;-149.78;100.00;50504.69;5114929;28;20051;-67
2021/12/30 01:24:15;;;;;;;5.55;1.70;;;;;;;-149.78;100.00;50534.03;5115816;28;20036;-67
2021/12/30 01:26:40;;;;;;;7.63;1.98;;;;;;;-149.78;100.00;50510.56;5115634;28;20035;-67
2021/12/30 01:29:06;;;;;;;4.85;2.38;;;;;;;-149.78;100.00;50539.91;5115646;28;20046;-67
2021/12/30 01:31:32;;;;;;;4.85;1.75;;;;;;;-149.78;100.00;50518.38;5115618;28;20552;-67
2021/12/30 01:33:58;;;;;;;4.13;1.58;;;;;;;-149.78;100.00;50539.91;5097388;28;20486;-67
2021/12/30 01:36:26;;;;;;;4.15;1.52;;;;;;;-149.78;100.00;50549.69;5115685;28;20385;-67
2021/12/30 01:38:54;;;;;;;6.15;1.63;;;;;;;-149.78;100.00;50541.84;5097004;28;20486;-67
2021/12/30 01:41:22;;;;;;;9.00;1.65;;;;;;;-149.78;100.00;50545.75;5115386;28;20036;-67
2021/12/30 01:43:48;;;;;;;3.90;1.50;;;;;;;-149.78;100.00;50528.16;5115348;28;20032;-67
2021/12/30 01:46:15;;;;;;;8.88;1.80;;;;;;;-149.78;100.00;50510.56;5115350;28;20127;-67
2021/12/30 01:48:42;;;;;;;5.28;2.03;;;;;;;-149.78;100.00;50549.69;5114255;28;20028;-67
2021/12/30 01:51:09;;;;;;;4.35;1.42;;;;;;;-149.78;100.00;50522.28;5097268;28;20385;-67
2021/12/30 01:53:35;;;;;;;4.25;1.75;;;;;;;-149.78;100.00;50541.84;5096822;28;20463;-64
2021/12/30 01:56:02;;;;;;;5.82;1.40;;;;;;;-149.78;100.00;50555.53;5115178;28;20378;-64
2021/12/30 01:58:28;;;;;;;3.50;1.40;;;;;;;-149.78;100.00;50532.06;5115087;28;20062;-64
2021/12/30 02:00:54;;;;;;;2.97;1.50;;;;;;;-149.78;100.00;50522.28;5114760;28;20561;-64
2021/12/30 02:03:21;;;;;;;4.13;1.48;;;;;;;-149.78;100.00;50510.56;5096937;28;20036;-64
2021/12/30 02:05:47;;;;;;;5.25;1.70;;;;;;;-149.78;100.00;50522.28;5096682;28;20466;-64
2021/12/30 02:08:17;;;;;;;3.33;1.30;;;;;;;-149.78;100.00;50553.59;5096220;28;20047;-64
2021/12/30 02:10:45;;;;;;;2.58;1.13;;;;;;;-149.78;100.00;50545.75;5114196;28;20533;-64
2021/12/30 02:13:12;;;;;;;3.05;1.27;;;;;;;-149.78;100.00;50491.00;5114672;28;20367;-64
2021/12/30 02:15:38;;;;;;;5.78;1.20;;;;;;;-149.78;100.00;50530.13;5114771;28;20039;-64
2021/12/30 02:18:04;;;;;;;2.13;1.20;;;;;;;-149.78;100.00;50537.94;5096217;28;20084;-64
2021/12/30 02:20:46;;;;;;;2.05;1.23;;;;;;;-149.78;100.00;50549.69;5114661;28;20059;-64
2021/12/30 02:23:24;;;;;;;1.70;1.30;;;;;;;-149.78;100.00;50514.47;5114531;28;20036;-64
2021/12/30 02:25:52;;;;;;;3.10;1.00;;;;;;;-149.78;100.00;50561.41;5114473;28;20118;-64
2021/12/30 02:28:23;;;;;;;3.85;2.20;;;;;;;-149.78;100.00;50537.94;5114639;28;20416;-64
2021/12/30 02:30:50;;;;;;;1.90;1.35;;;;;;;-149.78;100.00;50561.41;5114336;28;20039;-65
2021/12/30 02:33:16;;;;;;;1.92;1.27;;;;;;;-149.78;100.00;50549.69;5114487;28;20502;-64
2021/12/30 02:35:42;;;;;;;3.03;1.33;;;;;;;-149.78;100.00;50514.47;5114333;28;20067;-64
2021/12/30 02:38:09;;;;;;;2.75;1.40;;;;;;;-149.78;100.00;50545.75;5114332;28;20501;-64
2021/12/30 02:40:45;;;;;;;1.80;1.20;;;;;;;-149.78;100.00;50530.13;5114222;28;20039;-64
2021/12/30 02:43:23;;;;;;;3.38;1.35;;;;;;;-149.78;100.00;50549.69;5114306;28;20039;-64
2021/12/30 02:45:49;;;;;;;3.40;1.10;;;;;;;-149.78;100.00;50545.75;5113957;28;20478;-64
2021/12/30 02:48:21;;;;;;;1.30;1.00;;;;;;;-149.78;100.00;50537.94;5114185;28;20046;-67
2021/12/30 02:50:50;;;;;;;3.20;1.00;;;;;;;-149.78;100.00;50530.13;5114131;28;20030;-67
2021/12/30 02:53:16;;;;;;;1.52;1.25;;;;;;;-149.78;100.00;50537.94;5114096;28;20035;-67
2021/12/30 02:55:43;;;;;;;2.03;1.20;;;;;;;-149.78;100.00;50530.13;5114018;28;20046;-67
2021/12/30 02:58:10;;;;;;;1.20;1.00;;;;;;;-149.78;100.00;50510.56;5111955;28;20043;-67
2021/12/30 03:00:37;;;;;;;2.55;1.10;;;;;;;-149.78;100.00;50514.47;5078262;28;20035;-67
2021/12/30 03:03:03;;;;;;;1.98;1.30;;;;;;;-149.78;100.00;50549.69;5113489;28;20039;-67
2021/12/30 03:05:29;;;;;;;1.60;1.00;;;;;;;-149.78;100.00;50526.22;5113991;28;20031;-67
2021/12/30 03:07:55;;;;;;;2.22;1.00;;;;;;;-149.78;100.00;50541.84;5113583;28;20081;-64
2021/12/30 03:10:25;;;;;;;1.70;0.82;;;;;;;-149.78;100.00;50534.03;5095676;28;20048;-64
2021/12/30 03:12:56;;;;;;;0.90;0.90;;;;;;;-149.78;100.00;50526.22;5113615;28;20104;-64
2021/12/30 03:15:23;;;;;;;1.50;0.93;;;;;;;-149.78;100.00;50522.28;5113719;28;20065;-64
2021/12/30 03:17:49;;;;;;;1.80;0.90;;;;;;;-149.78;100.00;50553.59;5095574;28;20454;-64
2021/12/30 03:20:15;;;;;;;1.20;1.00;;;;;;;-149.78;100.00;50539.91;5111942;28;20035;-64
2021/12/30 03:22:42;;;;;;;1.20;0.82;;;;;;;-149.78;100.00;50530.13;5113378;28;20527;-64
2021/12/30 03:25:10;;;;;;;1.10;0.77;;;;;;;-149.78;100.00;50522.28;5112743;28;20043;-64
2021/12/30 03:27:36;;;;;;;1.02;0.90;;;;;;;-149.78;100.00;50545.75;5113629;28;20027;-64
2021/12/30 03:30:08;;;;;;;0.60;0.60;;;;;;;-149.78;100.00;50520.34;5113452;28;20038;-64
2021/12/30 03:32:34;;;;;;;0.68;0.63;;;;;;;-149.78;100.00;50534.03;5094195;28;20043;-64
2021/12/30 03:35:00;;;;;;;0.73;0.70;;;;;;;-149.78;100.00;50463.63;5112531;28;20432;-64
2021/12/30 03:37:25;;;;;;;0.70;0.70;;;;;;;-149.78;100.00;50534.03;5113122;28;20123;-64
2021/12/30 03:39:51;;;;;;;0.55;0.55;;;;;;;-149.78;100.00;50518.38;5113065;28;20042;-64
2021/12/30 03:42:17;;;;;;;1.42;0.60;;;;;;;-149.78;100.00;50561.41;5112660;28;20432;-64
2021/12/30 03:44:43;;;;;;;1.35;0.60;;;;;;;-149.78;100.00;50524.25;5112934;28;20390;-67
2021/12/30 03:47:14;;;;;;;1.08;0.50;;;;;;;-149.78;100.00;50532.06;5094850;28;20497;-67
2021/12/30 03:49:44;;;;;;;0.50;0.50;;;;;;;-149.78;100.00;50545.75;5113090;28;20035;-68
2021/12/30 03:52:15;;;;;;;0.40;0.40;;;;;;;-149.78;100.00;50506.66;5112997;28;20055;-68
2021/12/30 03:54:42;;;;;;;0.43;0.43;;;;;;;-149.78;100.00;50561.41;5111600;28;21291;-67
2021/12/30 03:57:08;;;;;;;0.50;0.43;;;;;;;-149.78;100.00;50518.38;5112212;28;20031;-67
2021/12/30 03:59:34;;;;;;;0.50;0.50;;;;;;;-149.78;100.00;50510.56;5112871;28;20044;-67
2021/12/30 04:02:00;;;;;;;0.40;0.40;;;;;;;-149.78;100.00;50530.13;5113232;28;20051;-68
2021/12/30 04:04:26;;;;;;;0.50;0.50;;;;;;;-149.78;100.00;50502.75;5113463;28;20035;-67
2021/12/30 04:06:51;;;;;;;0.43;0.40;;;;;;;-149.78;100.00;50528.16;5112791;28;20036;-67
2021/12/30 04:09:18;;;;;;;0.43;0.40;;;;;;;-149.78;100.00;50537.94;5095634;28;20031;-67
2021/12/30 04:11:44;;;;;;;2.17;0.60;;;;;;;-149.78;100.00;50545.75;5096631;28;20493;-67
2021/12/30 04:14:10;;;;;;;0.50;0.50;;;;;;;-149.78;100.00;50561.41;5117208;28;20156;-67
2021/12/30 04:16:36;;;;;;;0.70;0.50;;;;;;;-149.78;100.00;50506.66;5117046;28;20126;-67
2021/12/30 04:19:03;;;;;;;0.95;0.60;;;;;;;-149.78;100.00;50516.44;5116904;28;20031;-67
2021/12/30 04:21:30;;;;;;;0.70;0.50;;;;;;;-149.78;100.00;50526.22;5116976;28;20039;-67
2021/12/30 04:23:56;;;;;;;0.60;0.60;;;;;;;-149.78;100.00;50534.03;5116980;28;20047;-67
2021/12/30 04:26:22;;;;;;;0.65;0.50;;;;;;;-149.78;100.00;50518.38;5117075;28;20032;-67
2021/12/30 04:28:47;;;;;;;0.55;0.50;;;;;;;-149.78;100.00;50487.09;5116064;28;20040;-68
2021/12/30 04:31:13;;;;;;;0.93;0.50;;;;;;;-149.78;100.00;50498.81;5116712;28;20462;-67
2021/12/30 04:33:39;;;;;;;1.95;0.60;;;;;;;-149.78;100.00;50545.75;5116594;28;20188;-67
2021/12/30 04:36:06;;;;;;;2.05;0.50;;;;;;;-149.78;100.00;50483.19;5116774;28;20537;-67
2021/12/30 04:38:32;;;;;;;0.50;0.45;;;;;;;-149.78;100.00;50506.66;5116714;28;20047;-67
2021/12/30 04:40:59;;;;;;;0.77;0.60;;;;;;;-149.78;100.00;50526.22;5116455;28;20036;-67
2021/12/30 04:43:25;;;;;;;0.75;0.70;;;;;;;-149.78;100.00;50506.66;5115750;28;20080;-67
2021/12/30 04:45:51;;;;;;;0.60;0.60;;;;;;;-149.78;100.00;50545.75;5114647;28;20031;-67
2021/12/30 04:48:18;;;;;;;0.63;0.50;;;;;;;-149.78;100.00;50547.72;5116169;28;20062;-67
2021/12/30 04:50:45;;;;;;;0.50;0.50;;;;;;;-149.78;100.00;50516.44;5116375;28;20074;-68
2021/12/30 04:53:12;;;;;;;0.70;0.70;;;;;;;-149.78;100.00;50477.31;5116191;28;20082;-67
2021/12/30 04:55:38;;;;;;;0.60;0.60;;;;;;;-149.78;100.00;50506.66;5115489;28;20446;-67
2021/12/30 04:58:05;;;;;;;0.60;0.60;;;;;;;-149.78;100.00;50494.91;5116292;28;20031;-67
2021/12/30 05:00:32;;;;;;;0.65;0.40;;;;;;;-149.78;100.00;50473.41;5116103;28;20028;-67
2021/12/30 05:05:49;;;;;;;0.52;0.50;;;;;;;-149.78;100.00;50530.13;5116116;28;20153;-67
2021/12/30 05:08:17;;;;;;;0.57;0.52;;;;;;;-149.78;100.00;50530.13;5116109;28;20119;-67
2021/12/30 05:10:43;;;;;;;1.55;0.47;;;;;;;-149.78;100.00;50524.25;5116048;28;20024;-67
2021/12/30 05:13:10;;;;;;;1.08;0.30;;;;;;;-149.78;100.00;50504.69;5115848;28;20044;-67
2021/12/30 05:15:36;;;;;;;0.40;0.40;;;;;;;-149.78;100.00;50502.75;5115871;28;20039;-67
2021/12/30 05:18:03;;;;;;;0.35;0.35;;;;;;;-149.78;100.00;50496.88;5115664;28;20034;-67
2021/12/30 05:20:29;;;;;;;0.30;0.30;;;;;;;-149.78;100.00;50530.13;5115605;28;20482;-67
2021/12/30 05:22:55;;;;;;;0.45;0.40;;;;;;;-149.78;100.00;50491.00;5115181;28;20055;-67
2021/12/30 05:25:21;;;;;;;0.50;0.50;;;;;;;-149.78;100.00;50535.97;5115262;28;20363;-67
2021/12/30 05:27:48;;;;;;;0.45;0.43;;;;;;;-149.78;100.00;50534.03;5096803;28;20051;-67
2021/12/30 05:30:15;;;;;;;0.50;0.50;;;;;;;-149.78;100.00;50524.25;5115147;28;20104;-67
2021/12/30 05:32:41;;;;;;;0.57;0.50;;;;;;;-149.78;100.00;50522.28;5115088;28;20042;-64
2021/12/30 05:35:09;;;;;;;0.60;0.55;;;;;;;-149.78;100.00;50516.44;5115054;28;20046;-64
2021/12/30 05:37:35;;;;;;;0.63;0.60;;;;;;;-149.78;100.00;50530.13;5114956;28;20470;-64
2021/12/30 05:40:02;;;;;;;0.70;0.65;;;;;;;-149.78;100.00;50549.69;5114817;28;20054;-67
2021/12/30 05:42:28;;;;;;;1.23;0.70;;;;;;;-149.78;100.00;50498.81;5114897;28;20471;-67
2021/12/30 05:44:56;;;;;;;0.80;0.70;;;;;;;-149.78;100.00;50494.91;5115207;28;20039;-67
2021/12/30 05:47:24;;;;;;;0.73;0.70;;;;;;;-149.78;100.00;50483.19;5115329;28;20035;-67
2021/12/30 05:49:50;;;;;;;0.80;0.75;;;;;;;-149.78;100.00;50492.97;5115152;28;20039;-67
2021/12/30 05:52:17;;;;;;;0.60;0.60;;;;;;;-149.78;100.00;50537.94;5114603;28;20027;-67
2021/12/30 05:54:43;;;;;;;1.10;0.80;;;;;;;-149.78;100.00;50506.66;5114546;28;20039;-67
2021/12/30 05:57:09;;;;;;;1.38;0.90;;;;;;;-149.78;100.00;50502.75;5114704;28;20039;-67
2021/12/30 05:59:35;;;;;;;1.05;0.80;;;;;;;-149.78;100.00;50471.44;5114498;28;20035;-67
2021/12/30 06:02:01;;;;;;;0.95;0.80;;;;;;;-149.78;100.00;50498.81;5095350;28;20047;-67
2021/12/30 06:04:27;;;;;;;0.70;0.60;;;;;;;-149.78;100.00;50518.38;5114097;28;20085;-67
2021/12/30 06:06:52;;;;;;;0.70;0.70;;;;;;;-149.78;100.00;50510.56;5114187;28;20046;-67
2021/12/30 06:09:22;;;;;;;1.00;0.80;;;;;;;-149.78;100.00;50491.00;5114463;28;20036;-67
2021/12/30 06:11:48;;;;;;;1.08;0.80;;;;;;;-149.78;100.00;50502.75;5114391;28;20490;-67
2021/12/30 06:14:14;;;;;;;0.85;0.60;;;;;;;-149.78;100.00;50491.00;5114953;28;20035;-67
2021/12/30 06:16:39;;;;;;;0.90;0.80;;;;;;;-149.78;100.00;50489.03;5114599;28;20027;-67
2021/12/30 06:19:05;;;;;;;0.63;0.60;;;;;;;-149.78;100.00;50502.75;5114640;28;20032;-67
2021/12/30 06:21:31;;;;;;;0.90;0.75;;;;;;;-149.78;100.00;50537.94;5114630;28;20040;-67
2021/12/30 06:23:58;;;;;;;0.80;0.80;;;;;;;-149.78;100.00;50537.94;5114543;28;20080;-67
2021/12/30 06:26:24;;;;;;;0.80;0.70;;;;;;;-149.78;100.00;50498.81;5114574;28;20036;-67
2021/12/30 06:28:49;;;;;;;0.60;0.60;;;;;;;-149.78;100.00;50502.75;5114548;28;20051;-67
2021/12/30 06:31:15;;;;;;;0.85;0.85;;;;;;;-149.78;100.00;50518.38;5112646;28;20027;-67
2021/12/30 06:33:41;;;;;;;1.08;0.80;;;;;;;-149.78;100.00;50506.66;5113968;28;20032;-67
2021/12/30 06:36:07;;;;;;;0.63;0.63;;;;;;;-149.78;100.00;50522.28;5112638;28;20122;-67
2021/12/30 06:38:33;;;;;;;1.27;0.80;;;;;;;-149.78;100.00;50494.91;5113297;28;20080;-67
2021/12/30 06:41:00;;;;;;;0.50;0.50;;;;;;;-149.78;100.00;50494.91;5114188;28;20080;-67
2021/12/30 06:43:25;;;;;;;0.63;0.60;;;;;;;-149.78;100.00;50496.88;5114323;28;20537;-67
2021/12/30 06:45:51;;;;;;;1.10;0.70;;;;;;;-149.78;100.00;50518.38;5114062;28;20111;-67
2021/12/30 06:48:16;;;;;;;0.80;0.80;;;;;;;-149.78;100.00;50491.00;5112118;28;20028;-67
2021/12/30 06:50:51;;;;;;;1.23;0.88;;;;;;;-149.78;100.00;50494.91;5112644;28;20024;-67
2021/12/30 06:53:26;;;;;;;0.95;0.88;;;;;;;-149.78;100.00;50524.25;5111233;28;20035;-67
2021/12/30 06:55:53;;;;;;;0.98;0.85;;;;;;;-149.78;100.00;50514.47;5093436;28;20024;-68
2021/12/30 06:58:20;;;;;;;1.17;0.95;;;;;;;-149.78;100.00;50526.22;5058876;28;20036;-68
2021/12/30 07:00:47;;;;;;;1.15;0.98;;;;;;;-149.78;100.00;50492.97;5099535;28;20067;-68
2021/12/30 07:03:13;;;;;;;1.90;0.90;;;;;;;-149.78;100.00;50498.81;5111193;28;20031;-68
2021/12/30 07:05:39;;;;;;;1.45;1.05;;;;;;;-149.78;100.00;50496.88;5093245;28;20454;-68
2021/12/30 07:08:05;;;;;;;1.75;0.80;;;;;;;-149.78;100.00;50502.75;5108977;28;20031;-68
2021/12/30 07:10:31;;;;;;;1.10;0.70;;;;;;;-149.78;100.00;50510.56;5112495;28;20078;-67
2021/12/30 07:12:57;;;;;;;1.58;0.90;;;;;;;-149.78;100.00;50518.38;5113054;28;20078;-68
2021/12/30 07:15:22;;;;;;;0.60;0.60;;;;;;;-149.78;100.00;50502.75;5094875;28;20038;-68
2021/12/30 07:17:48;;;;;;;0.55;0.50;;;;;;;-149.78;100.00;50522.28;5113841;28;20051;-68
2021/12/30 07:20:14;;;;;;;0.50;0.50;;;;;;;-149.78;100.00;50520.34;5113801;28;20063;-68
2021/12/30 07:22:40;;;;;;;0.73;0.60;;;;;;;-149.78;100.00;50518.38;5111503;28;20449;-68
2021/12/30 07:25:07;;;;;;;0.50;0.50;;;;;;;-149.78;100.00;50479.28;5113532;28;20131;-68
2021/12/30 07:27:33;;;;;;;0.40;0.40;;;;;;;-149.78;100.00;50539.91;5113631;28;20039;-67
2021/12/30 07:29:59;;;;;;;0.50;0.50;;;;;;;-149.78;100.00;50487.09;5112969;28;20112;-68
2021/12/30 07:32:25;;;;;;;0.82;0.40;;;;;;;-149.78;100.00;50510.56;5112840;28;20386;-68
2021/12/30 07:34:51;;;;;;;0.25;0.25;;;;;;;-149.78;100.00;50485.13;5113679;28;20051;-68
2021/12/30 07:37:17;;;;;;;0.40;0.40;;;;;;;-149.78;100.00;50518.38;5113706;28;20498;-67
2021/12/30 07:39:44;;;;;;;0.95;0.30;;;;;;;-149.78;100.00;50498.81;5113398;28;20093;-67
2021/12/30 07:42:10;;;;;;;1.38;0.52;;;;;;;-149.78;100.00;50514.47;5113508;28;20088;-67
2021/12/30 07:44:37;;;;;;;0.30;0.20;;;;;;;-149.78;100.00;50502.75;5113423;28;20081;-67
2021/12/30 07:47:03;;;;;;;0.28;0.20;;;;;;;-149.78;100.00;50487.09;5115950;28;20430;-67
2021/12/30 07:49:29;;;;;;;1.13;0.25;;;;;;;-149.78;100.00;50506.66;5117649;28;20039;-67
2021/12/30 07:51:55;;;;;;;0.80;0.30;;;;;;;-149.78;100.00;50494.91;5117225;28;20031;-67
2021/12/30 07:54:20;;;;;;;0.22;0.20;;;;;;;-149.78;100.00;50496.88;5117594;28;20039;-68
2021/12/30 07:56:46;;;;;;;0.30;0.30;;;;;;;-149.78;100.00;50518.38;5117434;28;20032;-67
2021/12/30 07:59:12;;;;;;;0.10;0.10;;;;;;;-149.78;100.00;50487.09;5099111;28;20047;-67
2021/12/30 08:01:37;;;;;;;1.65;0.40;;;;;;;-149.78;100.00;50498.81;5117029;28;20035;-67
2021/12/30 08:04:03;;;;;;;0.20;0.20;;;;;;;-149.78;100.00;50528.16;5116891;28;20041;-67
2021/12/30 08:06:29;;;;;;;0.75;0.30;;;;;;;-149.78;100.00;50489.03;5116999;28;20035;-67
2021/12/30 08:08:55;;;;;;;0.88;0.30;;;;;;;-149.78;100.00;50506.66;5098600;28;20044;-67
2021/12/30 08:11:22;;;;;;;1.77;0.40;;;;;;;-149.78;100.00;50510.56;5116529;28;20046;-67
2021/12/30 08:13:48;;;;;;;0.28;0.28;;;;;;;-149.78;100.00;50508.59;5098627;28;20032;-67
2021/12/30 08:16:14;;;;;;;0.30;0.30;;;;;;;-149.78;100.00;50522.28;5116704;28;20034;-67
2021/12/30 08:18:43;;;;;;;1.20;0.50;;;;;;;-149.78;100.00;50496.88;5116717;28;20043;-67
2021/12/30 08:21:10;;;;;;;1.90;0.82;;;;;;;-149.78;100.00;50498.81;5116582;28;20067;-67
2021/12/30 08:23:36;;;;;;;0.73;0.70;;;;;;;-149.78;100.00;50491.00;5116599;28;20031;-68
2021/12/30 08:26:05;;;;;;;2.80;0.90;;;;;;;-149.78;100.00;50492.97;5116827;28;20047;-67
2021/12/30 08:28:31;;;;;;;1.08;0.80;;;;;;;-149.78;100.00;50518.38;5116661;28;20050;-67
2021/12/30 08:30:58;;;;;;;1.20;0.63;;;;;;;-149.78;100.00;50498.81;5116718;28;20066;-67
2021/12/30 08:33:24;;;;;;;2.05;0.50;;;;;;;-149.78;100.00;50530.13;5116282;28;20039;-67
2021/12/30 08:35:50;;;;;;;0.77;0.60;;;;;;;-149.78;100.00;50518.38;5096903;28;20036;-69
2021/12/30 08:38:17;;;;;;;1.17;0.75;;;;;;;-149.78;100.00;50489.03;5112770;28;20085;-68
2021/12/30 08:40:47;;;;;;;2.22;1.00;;;;;;;-149.78;100.00;50510.56;5114467;28;20028;-68
2021/12/30 08:43:16;;;;;;;3.00;0.70;;;;;;;-149.78;100.00;50516.44;5113283;28;20035;-67
2021/12/30 08:45:42;;;;;;;2.90;0.90;;;;;;;-149.78;100.00;50502.75;5114526;28;20412;-68
2021/12/30 08:48:07;;;;;;;1.35;0.90;;;;;;;-149.78;100.00;50541.84;5114889;28;20114;-68
2021/12/30 08:50:34;;;;;;;1.45;1.08;;;;;;;-149.78;100.00;50506.66;5114573;28;20042;-68
2021/12/30 08:53:00;;;;;;;1.42;0.82;;;;;;;-149.78;100.00;50522.28;5115788;28;20092;-67
2021/12/30 08:55:26;;;;;;;3.03;1.13;;;;;;;-149.78;100.00;50510.56;5114624;28;20522;-67
2021/12/30 08:57:52;;;;;;;3.08;1.00;;;;;;;-149.78;100.00;50502.75;5114142;28;20036;-68
2021/12/30 09:00:25;;;;;;;1.20;1.10;;;;;;;-149.78;100.00;50528.16;5114442;28;20123;-68
2021/12/30 09:02:56;;;;;;;5.35;2.03;;;;;;;-149.78;100.00;50500.78;5114107;28;20080;-67
2021/12/30 09:05:23;;;;;;;2.67;1.40;;;;;;;-149.78;100.00;50496.88;5112379;28;20040;-67
2021/12/30 09:07:50;;;;;;;1.77;1.20;;;;;;;-149.78;100.00;50553.59;5111586;28;20619;-67
2021/12/30 09:10:17;;;;;;;2.53;1.40;;;;;;;-149.78;100.00;50508.59;5111763;28;20036;-68
2021/12/30 09:12:44;;;;;;;1.90;1.50;;;;;;;-149.78;100.00;50541.84;5110780;28;20051;-68
2021/12/30 09:15:13;;;;;;;1.33;1.20;;;;;;;-149.78;100.00;50491.00;5113720;28;20023;-64
2021/12/30 09:17:40;;;;;;;2.20;1.40;;;;;;;-149.78;100.00;50510.56;5114921;28;20038;-64
2021/12/30 09:20:07;;;;;;;1.98;1.40;;;;;;;-149.78;100.00;50498.81;5115232;28;20037;-64
2021/12/30 09:22:34;;;;;;;2.85;1.42;;;;;;;-149.78;100.00;50530.13;5114208;28;20360;-64
2021/12/30 09:25:05;;;;;;;1.65;1.30;;;;;;;-149.78;100.00;50522.28;5078466;28;20031;-64
2021/12/30 09:27:36;;;;;;;2.15;1.10;;;;;;;-149.78;100.00;50475.34;5094479;28;20039;-64
2021/12/30 09:30:04;;;;;;;2.25;0.93;;;;;;;-149.78;100.00;50502.75;5112960;28;20027;-64
2021/12/30 09:32:29;;;;;;;5.55;1.00;;;;;;;-149.78;100.00;50494.91;5111389;28;20115;-64
2021/12/30 09:34:55;;;;;;;2.63;0.85;;;;;;;-149.78;100.00;50502.75;5112381;28;20470;-64
2021/12/30 09:37:20;;;;;;;1.55;1.10;;;;;;;-149.78;100.00;50483.19;5113985;28;20416;-64
2021/12/30 09:39:46;;;;;;;2.88;1.13;;;;;;;-149.78;100.00;50492.97;5096171;28;20028;-64
2021/12/30 09:42:14;;;;;;;4.03;1.05;;;;;;;-149.78;100.00;50514.47;5113741;28;20406;-63
2021/12/30 09:44:40;;;;;;;4.18;1.10;;;;;;;-149.78;100.00;50502.75;5113241;28;20027;-63
2021/12/30 09:47:06;;;;;;;6.70;1.50;;;;;;;-149.78;100.00;50526.22;5112637;28;20027;-63
2021/12/30 09:49:32;;;;;;;4.63;1.38;;;;;;;-149.78;100.00;50479.28;5112267;28;20080;-64
2021/12/30 09:51:58;;;;;;;3.17;1.20;;;;;;;-149.78;100.00;50492.97;5112387;28;20110;-64
2021/12/30 09:54:24;;;;;;;1.77;1.15;;;;;;;-149.78;100.00;50506.66;5094359;28;20047;-64
2021/12/30 09:56:51;;;;;;;2.42;1.23;;;;;;;-149.78;100.00;50518.38;5110471;28;20038;-64
2021/12/30 09:59:18;;;;;;;1.90;1.77;;;;;;;-149.78;100.00;50512.50;5112067;28;20351;-64
2021/12/30 10:01:44;;;;;;;3.22;1.55;;;;;;;-149.78;100.00;50494.91;5112554;28;20096;-64
2021/12/30 10:04:11;;;;;;;3.13;1.40;;;;;;;-149.78;100.00;50494.91;5094120;28;20096;-65
2021/12/30 10:06:48;;;;;;;3.08;1.13;;;;;;;-149.78;100.00;50518.38;5113054;28;20032;-64
2021/12/30 10:09:16;;;;;;;2.13;1.10;;;;;;;-149.78;100.00;50502.75;5107041;28;20048;-65
2021/12/30 10:11:45;;;;;;;1.30;1.20;;;;;;;-149.78;100.00;50506.66;5112059;28;20046;-64
2021/12/30 10:14:11;;;;;;;4.35;1.10;;;;;;;-149.78;100.00;50534.03;5112063;28;20031;-68
2021/12/30 10:16:37;;;;;;;1.55;1.10;;;;;;;-149.78;100.00;50483.19;5103623;28;20656;-64
2021/12/30 10:19:05;;;;;;;1.63;1.10;;;;;;;-149.78;100.00;50530.13;5108840;28;20034;-64
2021/12/30 10:21:36;;;;;;;2.28;1.38;;;;;;;-149.78;100.00;50494.91;5086561;28;20047;-68
2021/12/30 10:24:05;;;;;;;3.00;1.23;;;;;;;-149.78;100.00;50506.66;5112037;28;20147;-68
2021/12/30 10:26:57;;;;;;;1.95;1.48;;;;;;;-149.78;100.00;50518.38;5111120;28;20118;-67
2021/12/30 10:29:24;;;;;;;8.55;1.40;;;;;;;-149.78;100.00;50522.28;5109181;28;20358;-67
2021/12/30 10:31:50;;;;;;;4.63;1.48;;;;;;;-149.78;100.00;50506.66;5113023;28;20028;-67
2021/12/30 10:34:17;;;;;;;1.77;1.35;;;;;;;-149.78;100.00;50459.72;5114210;28;20374;-67
2021/12/30 10:36:45;;;;;;;4.50;1.50;;;;;;;-149.78;100.00;50471.44;5113878;28;20032;-67
2021/12/30 10:39:30;;;;;;;1.85;1.33;;;;;;;-149.78;100.00;50506.66;5114124;28;20043;-66
2021/12/30 10:42:10;;;;;;;3.13;1.30;;;;;;;-149.78;100.00;50508.59;5114237;28;20039;-67
2021/12/30 10:44:49;;;;;;;2.75;1.52;;;;;;;-149.78;100.00;50463.63;5114075;28;20035;-67
2021/12/30 10:47:15;;;;;;;2.45;1.50;;;;;;;-149.78;100.00;50487.09;5114120;28;20470;-66
2021/12/30 10:49:41;;;;;;;1.65;1.10;;;;;;;-149.78;100.00;50498.81;5113123;28;20546;-67
2021/12/30 10:52:06;;;;;;;2.60;1.30;;;;;;;-149.78;100.00;50498.81;5112974;28;20157;-67
2021/12/30 10:54:36;;;;;;;2.38;1.20;;;;;;;-149.78;100.00;50491.00;5113109;28;20572;-66
2021/12/30 10:57:09;;;;;;;2.83;1.20;;;;;;;-149.78;100.00;50487.09;5113986;28;20081;-66
2021/12/30 10:59:40;;;;;;;4.25;1.50;;;;;;;-149.78;100.00;50502.75;5112889;28;20024;-66
2021/12/30 11:02:13;;;;;;;3.55;1.60;;;;;;;-149.78;100.00;50510.56;5111986;28;20471;-67
2021/12/30 11:04:41;;;;;;;2.85;1.73;;;;;;;-149.78;100.00;50485.13;5108844;28;20088;-66
2021/12/30 11:07:11;;;;;;;4.90;1.70;;;;;;;-149.78;100.00;50459.72;5112032;28;20122;-67
2021/12/30 11:09:48;;;;;;;2.65;1.50;;;;;;;-149.78;100.00;50459.72;5110049;28;20076;-66
2021/12/30 11:12:15;;;;;;;2.72;1.60;;;;;;;-149.78;100.00;50487.09;5112305;28;20505;-66